Latest Coastal Weather Observations for Croker Island Airport

IDD60701

Issued at 1:41 am CST Tuesday 5 March 2024 (issued every 10 minutes, with the page automatically refreshed every 10 minutes)

About coastal observations | Map of coastal stations | Coastal observations for NT | Marine services | Other Formats
Station Details ID: 014308 Name: CROKER ISLAND AIRPORT Lat: -11.16 Lon: 132.48 Height: 9.2 m
Data from the previous 72 hours. | See also: Recent months at Croker Island Airport
Date/Time
CST
Wind Sea
Height
m
Swell Vis
km
Cloud Weather Temp
°C
Press
MSL
hPa
Rain since
9am
mm
Dir  Spd
kts
Gust
kts
Height
m
Period
s
Dir
05/01:30am W 5 8 - - - - - - - 28.6 1007.9 0.0
05/01:00am SW 3 5 - - - - - - - 28.6 1008.1 0.0
05/12:30am SW 3 5 - - - - - - - 28.6 1008.3 0.0
05/12:00am WSW 2 4 - - - - - - - 28.6 1008.5 0.0
 
Date/Time
CST
Wind Sea
Height
m
Swell Vis
km
Cloud Weather Temp
°C
Press
MSL
hPa
Rain since
9am
mm
Dir  Spd
kts
Gust
kts
Height
m
Period
s
Dir
04/11:30pm SW 3 4 - - - - - - - 28.6 1008.8 0.0
04/11:00pm WSW 1 3 - - - - - - - 28.6 1008.8 0.0
04/10:30pm WSW 3 5 - - - - - - - 28.8 1008.6 0.0
04/10:00pm WSW 5 8 - - - - - - - 28.9 1008.3 0.0
04/09:30pm WSW 5 6 - - - - - - - 28.9 1008.1 0.0
04/09:00pm W 4 6 - - - - - - - 29.0 1008.1 0.0
04/08:30pm WSW 5 8 - - - - - - - 29.0 1008.0 0.0
04/08:00pm WSW 5 8 - - - - - - - 29.2 1008.1 0.0
04/07:30pm WNW 4 6 - - - - - - - 29.2 1007.9 0.0
04/07:00pm WNW 5 7 - - - - - - - 29.4 1007.9 0.0
04/06:30pm WNW 6 9 - - - - - - - 29.5 1007.7 0.0
04/06:00pm WNW 6 9 - - - - - - - 29.7 1007.3 0.0
04/05:30pm W 4 6 - - - - - - - 30.0 1007.3 0.0
04/05:00pm W 4 5 - - - - - - - 29.8 1007.5 0.0
04/04:30pm NW 3 5 - - - - - - - 30.3 1007.9 0.0
04/04:00pm NW 5 8 - - - - - - - 30.8 1007.7 0.0
04/03:30pm NW 5 7 - - - - - - - 31.8 1007.9 0.0
04/03:00pm WNW 4 7 - - - - - - - 31.4 1007.5 0.0
04/02:30pm W 4 6 - - - - - - - 31.5 1007.8 0.0
04/02:00pm NNW 4 6 - - - - - - - 31.5 1008.0 0.0
04/01:30pm NW 4 7 - - - - - - - 31.2 1008.9 0.0
04/01:00pm NW 3 6 - - - - - - - 30.9 1009.5 0.0
04/12:30pm WNW 2 4 - - - - - - - 30.5 1010.1 0.0
04/12:00pm SW 2 4 - - - - - - - 30.7 1010.6 0.0
04/11:30am SW 2 4 - - - - - - - 30.1 1011.0 0.0
04/11:00am SW 3 6 - - - - - - - 29.3 1011.1 0.0
04/10:30am SW 4 6 - - - - - - - 29.0 1011.1 0.0
04/10:00am SW 4 9 - - - - - - - 28.4 1011.5 0.0
04/09:30am SSW 6 9 - - - - - - - 28.4 1011.7 0.0
04/09:00am SSW 4 7 - - - - - - - 28.7 1011.4 7.6
04/08:30am SW 2 4 - - - - - - - 28.7 1011.0 7.6
04/08:00am SW 2 3 - - - - - - - 28.5 1010.5 7.6
04/07:30am SW 1 4 - - - - - - - 28.2 1010.1 7.6
04/07:00am SW 1 3 - - - - - - - 28.0 1010.0 7.6
04/06:30am SW 2 3 - - - - - - - 27.8 1009.9 7.6
04/06:00am SW 1 4 - - - - - - Recent precip. 27.9 1009.5 7.6
04/05:30am SSW 3 4 - - - - - - - 27.6 1009.4 7.2
04/05:00am SSW 4 5 - - - - - - - 27.7 1009.1 7.2
04/04:30am SW 3 6 - - - - - - - 28.6 1009.5 7.2
04/04:00am W 4 6 - - - - - - - 28.8 1009.4 7.2
04/03:30am WSW 4 7 - - - - - - - 28.6 1009.4 7.2
04/03:00am WSW 5 7 - - - - - - - 28.7 1009.0 7.2
04/02:30am WSW 4 5 - - - - - - - 28.7 1009.3 7.2
04/02:00am WSW 4 6 - - - - - - - 28.7 1009.6 7.2
04/01:30am W 3 5 - - - - - - - 28.8 1010.1 7.2
04/01:00am WNW 3 5 - - - - - - - 28.6 1010.2 7.2
04/12:30am WSW 3 5 - - - - - - - 28.7 1010.6 7.2
04/12:00am WSW 3 5 - - - - - - - 28.8 1010.8 7.2
 
Date/Time
CST
Wind Sea
Height
m
Swell Vis
km
Cloud Weather Temp
°C
Press
MSL
hPa
Rain since
9am
mm
Dir  Spd
kts
Gust
kts
Height
m
Period
s
Dir
03/11:30pm SW 2 4 - - - - - - - 28.6 1011.0 7.2
03/11:00pm SW 2 4 - - - - - - - 28.8 1010.9 7.2
03/10:30pm SW 3 5 - - - - - - - 28.9 1010.5 7.2
03/10:00pm SW 3 7 - - - - - - - 29.0 1010.5 7.2
03/09:30pm SW 3 5 - - - - - - - 29.1 1010.2 7.2
03/09:00pm WSW 3 7 - - - - - - - 29.3 1010.1 7.2
03/08:30pm WSW 4 7 - - - - - - - 29.2 1009.5 7.2
03/08:00pm WSW 5 7 - - - - - - - 29.3 1008.8 7.2
03/07:30pm W 5 8 - - - - - - - 29.4 1008.6 7.2
03/07:00pm W 5 8 - - - - - - - 29.5 1008.6 7.2
03/06:30pm W 5 9 - - - - - - - 29.8 1008.4 7.2
03/06:00pm WNW 5 8 - - - - - - - 29.9 1008.1 7.2
03/05:30pm WNW 5 8 - - - - - - - 30.3 1007.8 7.2
03/05:00pm WNW 5 7 - - - - - - - 30.5 1007.6 7.2
03/04:30pm WNW 5 8 - - - - - - - 31.2 1007.9 7.2
03/04:00pm SW 2 3 - - - - - - - 30.5 1007.9 7.2
03/03:30pm WSW 2 3 - - - - - - - 30.5 1008.4 7.2
03/03:00pm WNW 1 2 - - - - - - Recent precip. 29.3 1008.8 7.2
03/02:30pm W 3 6 - - - - - - - 28.7 1009.5 6.8
03/02:00pm N 4 7 - - - - - - - 30.8 1009.5 0.0
03/01:30pm W 4 6 - - - - - - - 32.5 1009.6 0.0
03/01:00pm NW 4 7 - - - - - - - 31.0 1010.0 0.0
03/12:30pm NW 5 8 - - - - - - - 31.6 1010.3 0.0
03/12:00pm NW 4 7 - - - - - - - 32.2 1010.7 0.0
03/11:30am NW 4 6 - - - - - - - 32.1 1011.0 0.0
03/11:00am W 3 4 - - - - - - - 31.8 1011.2 0.0
03/10:30am W 2 3 - - - - - - - 31.4 1011.4 0.0
03/10:00am W 3 4 - - - - - - - 31.2 1011.8 0.0
03/09:30am WSW 2 3 - - - - - - - 30.6 1011.6 0.0
03/09:00am W 2 3 - - - - - - - 30.6 1011.7 0.0
03/08:30am SW 2 4 - - - - - - - 29.9 1011.2 0.0
03/08:00am SW 1 3 - - - - - - - 29.6 1011.1 0.0
03/07:30am SW 2 4 - - - - - - - 28.8 1010.7 0.0
03/07:00am WSW 3 6 - - - - - - - 28.4 1010.4 0.0
03/06:30am WSW 3 6 - - - - - - - 28.4 1010.2 0.0
03/06:00am WSW 4 7 - - - - - - - 28.5 1009.9 0.0
03/05:30am WSW 4 7 - - - - - - - 28.5 1009.6 0.0
03/05:00am WSW 3 6 - - - - - - - 28.6 1009.7 0.0
03/04:30am WSW 4 5 - - - - - - - 28.7 1009.5 0.0
03/04:00am WSW 3 5 - - - - - - - 28.7 1009.4 0.0
03/03:30am W 4 6 - - - - - - - 28.8 1009.2 0.0
03/03:00am WSW 2 5 - - - - - - - 28.8 1009.7 0.0
03/02:30am WSW 2 5 - - - - - - - 28.9 1010.0 0.0
03/02:00am W 3 4 - - - - - - - 28.9 1010.3 0.0
03/01:30am WSW 3 5 - - - - - - - 29.1 1010.7 0.0
03/01:00am W 4 7 - - - - - - - 29.2 1010.8 0.0
03/12:30am WSW 3 6 - - - - - - - 29.2 1010.8 0.0
03/12:00am W 3 7 - - - - - - - 29.3 1011.0 0.0
 
Date/Time
CST
Wind Sea
Height
m
Swell Vis
km
Cloud Weather Temp
°C
Press
MSL
hPa
Rain since
9am
mm
Dir  Spd
kts
Gust
kts
Height
m
Period
s
Dir
02/11:30pm WNW 4 7 - - - - - - - 29.1 1011.0 0.0
02/11:00pm WNW 5 7 - - - - - - - 29.3 1011.1 0.0
02/10:30pm NW 4 6 - - - - - - - 29.1 1010.8 0.0
02/10:00pm NW 5 7 - - - - - - - 29.1 1010.4 0.0
02/09:30pm NW 4 6 - - - - - - - 29.0 1009.9 0.0
02/09:00pm NW 3 5 - - - - - - - 28.9 1009.8 0.0
02/08:30pm NW 3 5 - - - - - - - 29.0 1009.6 0.0
02/08:00pm NW 3 3 - - - - - - - 29.0 1009.4 0.0
02/07:30pm NNW 4 5 - - - - - - - 29.3 1009.1 0.0
02/07:00pm NNW 3 6 - - - - - - - 29.3 1008.5 0.0
02/06:30pm NNW 3 5 - - - - - - - 29.7 1007.9 0.0
02/06:00pm NNW 4 6 - - - - - - - 29.9 1007.8 0.0
02/05:30pm NNW 3 5 - - - - - - - 30.4 1008.0 0.0
02/05:00pm WNW 3 6 - - - - - - - 31.6 1007.7 0.0
02/04:30pm NW 4 7 - - - - - - - 31.6 1007.5 0.0
02/04:00pm NW 7 9 - - - - - - - 31.7 1007.6 0.0
02/03:30pm NNW 6 10 - - - - - - - 31.5 1007.9 0.0
02/03:00pm NNW 7 11 - - - - - - - 31.6 1007.9 0.0
02/02:30pm NW 6 10 - - - - - - - 31.1 1008.3 0.0
02/02:00pm NNW 6 8 - - - - - - - 30.5 1009.0 0.0
02/01:30pm NW 6 10 - - - - - - - 31.9 1009.1 0.0
02/01:00pm NW 6 11 - - - - - - - 31.5 1009.6 0.0
02/12:30pm NNW 6 9 - - - - - - - 32.1 1009.9 0.0
02/12:00pm NNW 6 9 - - - - - - - 31.7 1010.3 0.0
02/11:30am NW 6 10 - - - - - - - 31.4 1010.6 0.0
02/11:00am NW 5 7 - - - - - - - 31.2 1010.9 0.0
02/10:30am NW 4 7 - - - - - - - 31.0 1011.0 0.0
02/10:00am NW 3 6 - - - - - - - 31.2 1010.7 0.0
02/09:30am NW 4 5 - - - - - - - 30.9 1010.9 0.0
02/09:00am NW 3 5 - - - - - - - 30.5 1010.7 -
02/08:30am NW 3 5 - - - - - - - 30.1 1010.5 -
02/08:00am NW 3 5 - - - - - - - 29.3 1010.5 -
02/07:30am NNW 2 4 - - - - - - - 28.7 1010.0 -
02/07:00am NW 3 4 - - - - - - - 28.2 1009.8 -
02/06:30am WNW 4 6 - - - - - - - 28.4 1009.4 -
02/06:00am NW 4 6 - - - - - - - 28.4 1009.1 -
02/05:30am NW 4 5 - - - - - - - 28.3 1008.6 -
02/05:00am NW 3 4 - - - - - - - 28.2 1008.6 -
02/04:30am NW 4 6 - - - - - - - 28.3 1008.5 -
02/04:00am WNW 4 6 - - - - - - - 28.3 1008.3 -
02/03:30am NW 3 5 - - - - - - - 28.3 1008.4 -
02/03:00am NW 3 5 - - - - - - - 28.4 1008.4 -
02/02:30am NW 4 6 - - - - - - - 28.5 1008.5 0.0
02/02:00am NW 4 8 - - - - - - - 28.6 1008.7 0.0

Other formats

Comma delimited format used in spreadsheet applications
http://www.bom.gov.au/fwo/IDD60701/IDD60701.94108.axf

JavaScript Object Notation format (JSON) in row-major order
http://www.bom.gov.au/fwo/IDD60701/IDD60701.94108.json

Data quality

Most of these data are generated automatically and are frequently updated. Quality checks on data are not normally performed. It is possible for incorrect values to appear. Refer to information at About Latest Weather Observations and please check the disclaimer before using these data.